createdAt,value
2023-05-19T00:00:20.139Z,44.83
2023-05-19T00:03:09.204Z,44.75
2023-05-19T00:05:45.630Z,44.90
2023-05-19T00:08:18.665Z,44.94
2023-05-19T00:10:47.228Z,44.78
2023-05-19T00:13:15.153Z,45.09
2023-05-19T00:15:43.016Z,45.15
2023-05-19T00:18:14.303Z,45.09
2023-05-19T00:20:43.313Z,45.09
2023-05-19T00:23:11.209Z,45.17
2023-05-19T00:25:38.748Z,45.17
2023-05-19T00:28:06.305Z,45.12
2023-05-19T00:30:34.084Z,45.22
2023-05-19T00:33:02.016Z,45.27
2023-05-19T00:35:29.824Z,45.23
2023-05-19T00:37:57.713Z,45.35
2023-05-19T00:40:26.095Z,45.12
2023-05-19T00:42:53.813Z,45.23
2023-05-19T00:45:21.520Z,45.24
2023-05-19T00:47:49.522Z,45.35
2023-05-19T00:50:18.642Z,45.31
2023-05-19T00:52:46.653Z,45.20
2023-05-19T00:55:15.247Z,45.24
2023-05-19T00:57:43.859Z,45.24
2023-05-19T01:00:12.403Z,45.48
2023-05-19T01:02:40.790Z,45.49
2023-05-19T01:05:09.311Z,45.50
2023-05-19T01:07:38.053Z,45.57
2023-05-19T01:10:07.915Z,45.58
2023-05-19T01:12:36.602Z,45.64
2023-05-19T01:15:05.415Z,45.58
2023-05-19T01:17:44.811Z,45.67
2023-05-19T01:20:25.919Z,45.79
2023-05-19T01:23:28.741Z,45.71
2023-05-19T01:26:14.350Z,45.83
2023-05-19T01:29:14.056Z,45.92
2023-05-19T01:31:44.522Z,46.04
2023-05-19T01:34:13.047Z,46.01
2023-05-19T01:36:44.986Z,46.10
2023-05-19T01:39:13.798Z,46.20
2023-05-19T01:41:42.536Z,46.14
2023-05-19T01:44:10.879Z,46.23
2023-05-19T01:46:39.017Z,46.13
2023-05-19T01:49:07.777Z,46.24
2023-05-19T01:51:35.949Z,46.25
2023-05-19T01:54:03.924Z,46.23
2023-05-19T01:56:46.653Z,46.40
2023-05-19T01:59:37.316Z,46.38
2023-05-19T02:02:26.807Z,46.53
2023-05-19T02:05:02.974Z,46.55
2023-05-19T02:07:44.768Z,46.57
2023-05-19T02:10:22.975Z,46.69
2023-05-19T02:12:58.705Z,46.61
2023-05-19T02:15:35.310Z,46.65
2023-05-19T02:18:04.442Z,46.80
2023-05-19T02:20:32.557Z,46.76
2023-05-19T02:23:00.351Z,46.80
2023-05-19T02:25:27.884Z,46.80
2023-05-19T02:27:55.750Z,46.83
2023-05-19T02:30:23.311Z,46.90
2023-05-19T02:32:50.941Z,46.93
2023-05-19T02:35:18.536Z,46.94
2023-05-19T02:37:46.266Z,47.02
2023-05-19T02:40:14.225Z,47.10
2023-05-19T02:42:41.736Z,47.19
2023-05-19T02:45:09.593Z,47.17
2023-05-19T02:47:38.344Z,47.21
2023-05-19T02:50:07.071Z,47.35
2023-05-19T02:52:34.729Z,47.37
2023-05-19T02:55:02.485Z,47.47
2023-05-19T02:57:31.682Z,47.64
2023-05-19T02:59:59.286Z,47.54
2023-05-19T03:02:26.785Z,47.57
2023-05-19T03:04:55.000Z,47.66
2023-05-19T03:07:25.214Z,47.61
2023-05-19T03:09:53.712Z,47.83
2023-05-19T03:12:21.860Z,47.72
2023-05-19T03:14:49.509Z,47.77
2023-05-19T03:17:17.025Z,47.84
2023-05-19T03:19:44.948Z,47.79
2023-05-19T03:22:12.555Z,47.88
2023-05-19T03:24:40.115Z,48.13
2023-05-19T03:27:07.628Z,48.05
2023-05-19T03:29:35.428Z,48.05
2023-05-19T03:32:03.128Z,48.13
2023-05-19T03:34:32.688Z,48.14
2023-05-19T03:37:00.438Z,48.33
2023-05-19T03:39:28.037Z,48.35
2023-05-19T03:41:56.262Z,48.35
2023-05-19T03:44:23.772Z,48.43
2023-05-19T03:46:51.328Z,48.34
2023-05-19T03:49:19.922Z,48.48
2023-05-19T03:51:47.480Z,48.53
2023-05-19T03:54:15.128Z,48.48
2023-05-19T03:56:43.507Z,48.66
2023-05-19T03:59:12.290Z,48.80
2023-05-19T04:01:40.281Z,48.77
2023-05-19T04:04:07.930Z,48.78
2023-05-19T04:06:36.330Z,48.91
2023-05-19T04:09:14.262Z,48.94
2023-05-19T04:11:43.071Z,49.22
2023-05-19T04:14:10.559Z,49.28
2023-05-19T04:16:38.415Z,49.18
2023-05-19T04:19:06.207Z,49.28
2023-05-19T04:21:33.962Z,49.32
2023-05-19T04:24:01.723Z,49.28
2023-05-19T04:26:31.216Z,49.40
2023-05-19T04:29:01.198Z,49.54
2023-05-19T04:31:29.984Z,49.57
2023-05-19T04:33:57.678Z,49.60
2023-05-19T04:36:25.807Z,49.87
2023-05-19T04:38:55.047Z,49.82
2023-05-19T04:41:22.873Z,49.73
2023-05-19T04:43:50.383Z,49.85
2023-05-19T04:46:18.201Z,49.88
2023-05-19T04:48:45.785Z,49.97
2023-05-19T04:51:14.109Z,50.05
2023-05-19T04:53:42.660Z,50.03
2023-05-19T04:56:13.814Z,50.23
2023-05-19T04:58:42.113Z,50.21
2023-05-19T05:01:09.636Z,50.41
2023-05-19T05:03:37.395Z,50.37
2023-05-19T05:06:05.186Z,50.28
2023-05-19T05:08:33.095Z,50.21
2023-05-19T05:11:01.954Z,50.18
2023-05-19T05:13:29.927Z,50.24
2023-05-19T05:15:58.636Z,50.14
2023-05-19T05:18:26.965Z,50.21
2023-05-19T05:20:54.770Z,50.19
2023-05-19T05:23:22.699Z,50.01
2023-05-19T05:25:50.505Z,50.01
2023-05-19T05:28:18.822Z,50.17
2023-05-19T05:30:46.386Z,50.14
2023-05-19T05:33:14.274Z,50.07
2023-05-19T05:35:42.451Z,49.97
2023-05-19T05:38:11.609Z,49.88
2023-05-19T05:40:39.992Z,49.90
2023-05-19T05:43:08.253Z,49.93
2023-05-19T05:45:35.884Z,49.71
2023-05-19T05:48:04.319Z,49.70
2023-05-19T05:50:32.293Z,49.68
2023-05-19T05:53:02.703Z,49.67
2023-05-19T05:55:30.929Z,49.86
2023-05-19T05:58:00.779Z,50.02
2023-05-19T06:00:29.882Z,49.51
2023-05-19T06:02:58.993Z,49.55
2023-05-19T06:05:26.727Z,49.48
2023-05-19T06:07:54.991Z,49.40
2023-05-19T06:10:23.278Z,49.36
2023-05-19T06:12:50.883Z,49.31
2023-05-19T06:15:18.493Z,49.14
2023-05-19T06:17:46.046Z,49.04
2023-05-19T06:20:16.956Z,48.95
2023-05-19T06:22:44.567Z,48.95
2023-05-19T06:25:13.199Z,49.00
2023-05-19T06:27:40.882Z,49.06
2023-05-19T06:30:09.371Z,48.92
2023-05-19T06:32:36.895Z,49.03
2023-05-19T06:35:04.943Z,48.92
2023-05-19T06:37:32.813Z,48.97
2023-05-19T06:40:00.664Z,49.07
2023-05-19T06:42:28.301Z,49.11
2023-05-19T06:44:55.943Z,49.00
2023-05-19T06:47:23.818Z,48.88
2023-05-19T06:49:55.379Z,48.85
2023-05-19T06:52:24.438Z,48.83
2023-05-19T06:54:51.879Z,48.62
2023-05-19T06:57:19.403Z,48.38
2023-05-19T06:59:49.410Z,48.72
2023-05-19T07:02:17.626Z,48.74
2023-05-19T07:04:45.759Z,48.85
2023-05-19T07:07:13.623Z,48.48
2023-05-19T07:09:41.883Z,48.44
2023-05-19T07:12:09.740Z,48.39
2023-05-19T07:14:38.832Z,48.40
2023-05-19T07:17:07.245Z,48.48
2023-05-19T07:19:35.972Z,48.41
2023-05-19T07:22:03.645Z,48.34
2023-05-19T07:24:31.491Z,48.43
2023-05-19T07:26:59.052Z,48.43
2023-05-19T07:29:26.744Z,48.40
2023-05-19T07:31:58.176Z,48.21
2023-05-19T07:34:26.313Z,48.33
2023-05-19T07:36:53.813Z,48.27
2023-05-19T07:39:22.097Z,48.23
2023-05-19T07:41:54.125Z,48.07
2023-05-19T07:44:22.238Z,48.25
2023-05-19T07:46:51.856Z,48.41
2023-05-19T07:49:19.571Z,48.20
2023-05-19T07:51:47.766Z,48.24
2023-05-19T07:54:15.758Z,48.04
2023-05-19T07:56:44.053Z,48.10
2023-05-19T07:59:11.753Z,48.10
2023-05-19T08:01:44.861Z,48.08
2023-05-19T08:04:15.884Z,47.84
2023-05-19T08:06:44.751Z,47.92
2023-05-19T08:09:12.396Z,47.90
2023-05-19T08:11:39.943Z,48.09
2023-05-19T08:14:07.472Z,48.20
2023-05-19T08:16:34.994Z,48.05
2023-05-19T08:19:04.787Z,48.48
2023-05-19T08:21:35.356Z,48.42
2023-05-19T08:24:04.226Z,48.17
2023-05-19T08:26:31.800Z,47.92
2023-05-19T08:28:59.286Z,48.06
2023-05-19T08:31:26.808Z,48.22
2023-05-19T08:33:54.374Z,48.25
2023-05-19T08:36:21.902Z,48.48
2023-05-19T08:38:49.358Z,48.51
2023-05-19T08:41:17.783Z,48.63
2023-05-19T08:43:45.513Z,48.19
2023-05-19T08:46:15.261Z,48.24
2023-05-19T08:48:45.986Z,48.60
2023-05-19T08:51:23.030Z,48.65
2023-05-19T08:53:55.196Z,48.46
2023-05-19T08:56:25.358Z,48.55
2023-05-19T08:58:53.653Z,48.46
2023-05-19T09:01:23.003Z,48.53
2023-05-19T09:03:52.195Z,48.58
2023-05-19T09:06:20.087Z,48.39
2023-05-19T09:08:48.126Z,48.55
2023-05-19T09:11:16.101Z,48.54
2023-05-19T09:13:43.903Z,48.79
2023-05-19T09:16:12.705Z,48.86
2023-05-19T09:18:43.410Z,48.54
2023-05-19T09:21:11.872Z,48.63
2023-05-19T09:23:39.742Z,48.82
2023-05-19T09:26:08.071Z,48.59
2023-05-19T09:28:36.799Z,48.42
2023-05-19T09:31:11.458Z,48.22
2023-05-19T09:33:45.579Z,48.09
2023-05-19T09:36:19.950Z,48.01
2023-05-19T09:38:48.168Z,48.41
2023-05-19T09:41:16.483Z,48.41
2023-05-19T09:43:57.513Z,48.42
2023-05-19T09:46:28.413Z,48.29
2023-05-19T09:49:00.426Z,48.09
2023-05-19T09:51:30.687Z,48.10
2023-05-19T09:53:59.519Z,48.07
2023-05-19T09:56:33.126Z,48.13
2023-05-19T09:59:03.385Z,48.33
2023-05-19T10:01:33.706Z,48.33
2023-05-19T10:04:03.871Z,48.31
2023-05-19T10:06:34.372Z,48.58
2023-05-19T10:09:03.420Z,48.62
2023-05-19T10:11:31.781Z,48.19
2023-05-19T10:14:00.144Z,48.13
2023-05-19T10:16:31.400Z,48.07
2023-05-19T10:19:01.197Z,48.13
2023-05-19T10:21:29.043Z,48.10
2023-05-19T10:23:56.606Z,47.87
2023-05-19T10:26:26.420Z,47.85
2023-05-19T10:28:55.576Z,48.09
2023-05-19T10:31:24.419Z,47.84
2023-05-19T10:34:22.133Z,48.04
2023-05-19T10:37:12.707Z,48.45
2023-05-19T10:39:43.721Z,48.67
2023-05-19T10:42:38.606Z,48.66
2023-05-19T10:45:24.005Z,48.43
2023-05-19T10:47:53.879Z,48.11
2023-05-19T10:50:22.597Z,47.97
2023-05-19T10:52:55.993Z,47.82
2023-05-19T10:55:47.647Z,47.60
2023-05-19T10:58:15.700Z,47.40
2023-05-19T11:00:43.640Z,47.42
2023-05-19T11:03:24.666Z,46.99
2023-05-19T11:05:52.228Z,46.74
2023-05-19T11:08:32.961Z,46.76
2023-05-19T11:11:17.469Z,46.69
2023-05-19T11:13:55.102Z,46.80
2023-05-19T11:16:31.883Z,46.92
2023-05-19T11:19:00.386Z,47.03
2023-05-19T11:21:52.381Z,47.07
2023-05-19T11:24:36.253Z,47.15
2023-05-19T11:27:27.172Z,47.18
2023-05-19T11:29:57.224Z,47.34
2023-05-19T11:32:39.594Z,47.94
2023-05-19T11:35:08.358Z,47.47
2023-05-19T11:37:36.617Z,47.12
2023-05-19T11:40:08.219Z,46.99
2023-05-19T11:42:38.082Z,46.73
2023-05-19T11:45:06.788Z,46.80
2023-05-19T11:47:45.941Z,46.97
2023-05-19T11:50:22.271Z,46.97
2023-05-19T11:52:52.454Z,47.06
2023-05-19T11:55:22.109Z,47.18
2023-05-19T12:00:38.982Z,47.53
2023-05-19T12:03:07.353Z,47.41
2023-05-19T12:05:47.351Z,47.59
2023-05-19T12:08:18.536Z,47.47
2023-05-19T12:10:52.226Z,47.69
2023-05-19T12:13:22.892Z,47.71
2023-05-19T12:15:53.304Z,47.80
2023-05-19T12:18:21.764Z,47.93
2023-05-19T12:20:49.720Z,48.37
2023-05-19T12:23:18.003Z,48.42
2023-05-19T12:25:46.005Z,48.04
2023-05-19T12:28:16.432Z,47.61
2023-05-19T12:30:48.091Z,47.51
2023-05-19T12:33:16.288Z,47.11
2023-05-19T12:35:45.462Z,47.04
2023-05-19T12:38:15.676Z,47.10
2023-05-19T12:40:44.476Z,47.21
2023-05-19T12:43:28.502Z,47.20
2023-05-19T12:45:56.075Z,47.40
2023-05-19T12:48:23.708Z,47.40
2023-05-19T12:50:54.358Z,47.59
2023-05-19T12:53:22.085Z,47.61
2023-05-19T12:55:52.858Z,47.61
2023-05-19T12:58:22.706Z,47.68
2023-05-19T13:00:50.909Z,47.65
2023-05-19T13:03:20.318Z,47.86
2023-05-19T13:05:50.756Z,47.80
2023-05-19T13:08:23.898Z,48.02
2023-05-19T13:10:51.966Z,48.00
2023-05-19T13:13:20.837Z,47.62
2023-05-19T13:15:49.527Z,47.69
2023-05-19T13:18:17.769Z,47.54
2023-05-19T13:20:50.211Z,47.30
2023-05-19T13:23:18.528Z,47.36
2023-05-19T13:25:46.353Z,47.21
2023-05-19T13:28:14.294Z,47.38
2023-05-19T13:30:43.935Z,47.34
2023-05-19T13:33:13.037Z,47.38
2023-05-19T13:35:42.297Z,47.52
2023-05-19T13:38:10.741Z,47.65
2023-05-19T13:40:40.353Z,47.61
2023-05-19T13:43:09.807Z,47.66
2023-05-19T13:45:38.447Z,47.88
2023-05-19T13:48:07.322Z,47.84
2023-05-19T13:50:35.471Z,47.99
2023-05-19T13:53:04.828Z,47.95
2023-05-19T13:55:33.618Z,47.84
2023-05-19T13:58:02.382Z,48.03
2023-05-19T14:00:37.026Z,48.14
2023-05-19T14:03:04.685Z,48.24
2023-05-19T14:05:33.436Z,48.30
2023-05-19T14:08:01.335Z,48.36
2023-05-19T14:10:34.679Z,48.38
2023-05-19T14:13:30.420Z,48.55
2023-05-19T14:15:52.227Z,48.51
2023-05-19T14:18:19.853Z,48.78
2023-05-19T14:20:47.399Z,48.76
2023-05-19T14:23:16.937Z,48.65
2023-05-19T14:25:44.514Z,48.84
2023-05-19T14:28:12.140Z,48.64
2023-05-19T14:30:40.488Z,48.82
2023-05-19T14:33:09.264Z,48.93
2023-05-19T14:35:37.097Z,48.92
2023-05-19T14:38:04.890Z,49.05
2023-05-19T14:40:32.909Z,49.13
2023-05-19T14:43:00.744Z,49.13
2023-05-19T14:45:28.444Z,49.29
2023-05-19T14:47:56.199Z,49.28
2023-05-19T14:50:23.895Z,49.45
2023-05-19T14:52:51.520Z,49.39
2023-05-19T14:55:19.207Z,49.30
2023-05-19T14:57:46.865Z,49.42
2023-05-19T15:00:14.729Z,49.51
2023-05-19T15:02:42.637Z,49.43
2023-05-19T15:05:11.633Z,49.40
2023-05-19T15:07:39.213Z,49.43
2023-05-19T15:10:07.739Z,49.51
2023-05-19T15:12:35.416Z,49.44
2023-05-19T15:15:03.451Z,49.50
2023-05-19T15:17:31.280Z,49.39
2023-05-19T15:19:58.892Z,49.55
2023-05-19T15:22:26.617Z,49.66
2023-05-19T15:24:54.284Z,49.65
2023-05-19T15:27:22.736Z,49.69
2023-05-19T15:29:51.400Z,49.85
2023-05-19T15:32:19.213Z,49.85
2023-05-19T15:34:46.880Z,49.80
2023-05-19T15:37:14.968Z,49.72
2023-05-19T15:39:42.429Z,49.92
2023-05-19T15:42:10.005Z,49.80
2023-05-19T15:44:38.370Z,49.90
2023-05-19T15:47:06.054Z,49.69
2023-05-19T15:49:33.534Z,49.83
2023-05-19T15:52:02.154Z,50.03
2023-05-19T15:54:29.795Z,49.86
2023-05-19T15:56:57.392Z,49.86
2023-05-19T15:59:25.006Z,50.14
2023-05-19T16:01:53.266Z,49.96
2023-05-19T16:04:21.212Z,50.01
2023-05-19T16:06:49.090Z,50.17
2023-05-19T16:09:16.761Z,50.22
2023-05-19T16:11:44.351Z,50.11
2023-05-19T16:14:11.862Z,50.20
2023-05-19T16:16:39.575Z,50.13
2023-05-19T16:19:07.285Z,50.17
2023-05-19T16:21:36.198Z,50.19
2023-05-19T16:24:04.076Z,50.13
2023-05-19T16:26:31.593Z,50.29
2023-05-19T16:28:59.156Z,50.22
2023-05-19T16:31:26.731Z,50.33
2023-05-19T16:33:54.293Z,50.60
2023-05-19T16:36:22.991Z,50.64
2023-05-19T16:38:50.533Z,50.66
2023-05-19T16:41:18.147Z,50.88
2023-05-19T16:43:45.802Z,50.86
2023-05-19T16:46:13.429Z,50.87
2023-05-19T16:48:41.018Z,50.94
2023-05-19T16:51:08.550Z,50.88
2023-05-19T16:53:36.091Z,50.90
2023-05-19T16:56:04.206Z,50.94
2023-05-19T16:58:31.956Z,50.98
2023-05-19T17:00:59.545Z,51.01
2023-05-19T17:03:27.227Z,51.24
2023-05-19T17:05:55.261Z,50.99
2023-05-19T17:08:22.806Z,50.92
2023-05-19T17:10:50.325Z,50.93
2023-05-19T17:13:17.964Z,50.87
2023-05-19T17:15:45.550Z,50.86
2023-05-19T17:18:13.192Z,51.02
2023-05-19T17:20:41.494Z,50.94
2023-05-19T17:23:09.064Z,51.09
2023-05-19T17:25:36.574Z,51.13
2023-05-19T17:28:04.267Z,51.08
2023-05-19T17:30:32.061Z,51.22
2023-05-19T17:33:00.692Z,51.26
2023-05-19T17:35:28.683Z,51.33
2023-05-19T17:37:57.942Z,51.36
2023-05-19T17:40:25.800Z,51.27
2023-05-19T17:42:53.369Z,51.36
2023-05-19T17:45:22.145Z,51.33
2023-05-19T17:47:49.924Z,51.39
2023-05-19T17:50:17.577Z,51.32
2023-05-19T17:52:45.679Z,51.31
2023-05-19T17:55:14.783Z,51.53
2023-05-19T17:57:45.642Z,51.47
2023-05-19T18:00:13.702Z,51.70
2023-05-19T18:02:41.677Z,51.69
2023-05-19T18:05:10.382Z,51.78
2023-05-19T18:07:39.582Z,51.79
2023-05-19T18:10:09.096Z,51.75
2023-05-19T18:12:36.636Z,51.97
2023-05-19T18:15:04.693Z,51.75
2023-05-19T18:17:32.469Z,51.94
2023-05-19T18:19:59.989Z,51.89
2023-05-19T18:22:27.473Z,51.88
2023-05-19T18:24:56.114Z,51.96
2023-05-19T18:27:23.659Z,52.01
2023-05-19T18:29:51.203Z,51.89
2023-05-19T18:32:18.681Z,52.15
2023-05-19T18:34:46.367Z,52.02
2023-05-19T18:37:13.879Z,52.10
2023-05-19T18:39:41.432Z,52.20
2023-05-19T18:42:09.039Z,52.22
2023-05-19T18:44:36.512Z,52.32
2023-05-19T18:47:04.173Z,52.38
2023-05-19T18:49:32.917Z,52.34
2023-05-19T18:52:00.498Z,52.60
2023-05-19T18:54:28.494Z,52.60
2023-05-19T18:56:55.999Z,52.54
2023-05-19T18:59:24.692Z,52.53
2023-05-19T19:01:55.653Z,52.53
2023-05-19T19:04:23.161Z,52.35
2023-05-19T19:06:52.294Z,52.55
2023-05-19T19:09:19.734Z,52.60
2023-05-19T19:11:47.437Z,52.58
2023-05-19T19:14:15.165Z,52.66
2023-05-19T19:16:42.728Z,52.66
2023-05-19T19:19:10.580Z,52.70
2023-05-19T19:21:40.368Z,52.83
2023-05-19T19:24:07.883Z,52.93
2023-05-19T19:26:35.426Z,52.93
2023-05-19T19:29:02.910Z,52.93
2023-05-19T19:31:30.579Z,53.03
2023-05-19T19:34:02.949Z,53.12
2023-05-19T19:36:31.785Z,53.11
2023-05-19T19:38:59.637Z,53.20
2023-05-19T19:41:29.625Z,53.04
2023-05-19T19:43:57.203Z,53.21
2023-05-19T19:46:24.813Z,53.36
2023-05-19T19:48:52.760Z,53.25
2023-05-19T19:51:20.493Z,53.34
2023-05-19T19:53:48.205Z,53.27
2023-05-19T19:56:15.786Z,53.33
2023-05-19T19:58:43.341Z,53.54
2023-05-19T20:01:11.276Z,53.47
2023-05-19T20:03:38.957Z,53.64
2023-05-19T20:06:07.464Z,53.40
2023-05-19T20:08:34.937Z,53.56
2023-05-19T20:11:02.528Z,53.54
2023-05-19T20:13:30.810Z,53.53
2023-05-19T20:16:01.297Z,53.59
2023-05-19T20:18:29.704Z,53.59
2023-05-19T20:20:57.560Z,53.57
2023-05-19T20:23:25.221Z,53.57
2023-05-19T20:26:09.919Z,53.57
2023-05-19T20:28:39.275Z,53.65
2023-05-19T20:31:06.950Z,53.76
2023-05-19T20:33:34.972Z,53.64
2023-05-19T20:36:02.632Z,53.91
2023-05-19T20:38:30.194Z,53.72
2023-05-19T20:40:57.711Z,53.93
2023-05-19T20:43:25.369Z,53.98
2023-05-19T20:45:52.978Z,53.94
2023-05-19T20:48:20.949Z,54.00
2023-05-19T20:50:48.554Z,54.01
2023-05-19T20:53:16.111Z,54.02
2023-05-19T20:55:48.094Z,53.98
2023-05-19T20:58:15.837Z,53.95
2023-05-19T21:00:44.460Z,54.22
2023-05-19T21:03:12.194Z,54.09
2023-05-19T21:05:39.883Z,54.18
2023-05-19T21:08:12.509Z,54.15
2023-05-19T21:10:40.894Z,54.37
2023-05-19T21:13:08.651Z,54.22
2023-05-19T21:15:36.157Z,54.27
2023-05-19T21:18:03.966Z,54.24
2023-05-19T21:20:31.925Z,54.26
2023-05-19T21:23:01.283Z,54.36
2023-05-19T21:25:28.738Z,54.35
2023-05-19T21:27:58.344Z,54.42
2023-05-19T21:30:25.942Z,54.45
2023-05-19T21:32:53.521Z,54.44
2023-05-19T21:35:21.186Z,54.39
2023-05-19T21:37:48.812Z,54.52
2023-05-19T21:40:16.427Z,54.53
2023-05-19T21:42:44.044Z,54.67
2023-05-19T21:45:11.524Z,54.47
2023-05-19T21:47:39.337Z,54.53
2023-05-19T21:50:07.512Z,54.68
2023-05-19T21:52:36.328Z,54.78
2023-05-19T21:55:04.189Z,54.75
2023-05-19T21:57:31.734Z,54.72
2023-05-19T21:59:59.237Z,54.60
2023-05-19T22:02:27.179Z,54.61
2023-05-19T22:04:54.773Z,54.75
2023-05-19T22:07:27.101Z,54.69
2023-05-19T22:09:54.650Z,54.71
2023-05-19T22:12:24.084Z,54.83
2023-05-19T22:14:51.592Z,54.79
2023-05-19T22:17:19.071Z,54.80
2023-05-19T22:19:46.571Z,54.81
2023-05-19T22:22:14.889Z,54.73
2023-05-19T22:24:42.966Z,54.81
2023-05-19T22:27:10.522Z,54.88
2023-05-19T22:29:40.923Z,55.00
2023-05-19T22:32:12.320Z,55.05
2023-05-19T22:34:40.472Z,54.85
2023-05-19T22:37:08.196Z,54.75
2023-05-19T22:39:36.350Z,54.97
2023-05-19T22:42:03.984Z,54.94
2023-05-19T22:44:31.730Z,54.95
2023-05-19T22:47:00.110Z,55.05
2023-05-19T22:49:29.215Z,55.08
2023-05-19T22:51:57.952Z,55.06
2023-05-19T22:54:25.690Z,55.18
2023-05-19T22:56:53.151Z,55.09
2023-05-19T22:59:21.511Z,55.07
2023-05-19T23:01:48.940Z,55.06
2023-05-19T23:04:16.566Z,55.17
2023-05-19T23:06:44.391Z,55.02
2023-05-19T23:09:11.942Z,54.99
2023-05-19T23:11:39.428Z,55.12
2023-05-19T23:14:06.908Z,55.15
2023-05-19T23:16:34.490Z,55.04
2023-05-19T23:19:02.408Z,55.10
2023-05-19T23:21:32.401Z,55.06
2023-05-19T23:24:00.040Z,55.17
2023-05-19T23:26:27.564Z,55.03
2023-05-19T23:28:55.092Z,55.11
2023-05-19T23:31:22.757Z,55.05
2023-05-19T23:33:50.561Z,55.10
2023-05-19T23:36:19.193Z,55.14
2023-05-19T23:38:46.696Z,55.18
2023-05-19T23:41:14.705Z,55.07
2023-05-19T23:43:42.228Z,55.23
2023-05-19T23:46:10.511Z,55.21
2023-05-19T23:48:38.238Z,55.20
2023-05-19T23:51:05.844Z,55.14
2023-05-19T23:53:33.533Z,55.20
2023-05-19T23:56:02.430Z,55.20
2023-05-19T23:58:29.928Z,55.29
